createdAt,value
2022-12-20T00:00:52.405Z,68.43
2022-12-20T00:03:20.201Z,68.14
2022-12-20T00:05:47.369Z,68.26
2022-12-20T00:08:13.866Z,68.52
2022-12-20T00:10:42.998Z,68.42
2022-12-20T00:13:09.962Z,68.86
2022-12-20T00:15:36.657Z,68.84
2022-12-20T00:18:03.848Z,68.61
2022-12-20T00:20:30.617Z,68.49
2022-12-20T00:22:57.068Z,68.33
2022-12-20T00:25:23.561Z,68.43
2022-12-20T00:27:50.101Z,68.49
2022-12-20T00:30:17.364Z,68.61
2022-12-20T00:32:44.541Z,68.16
2022-12-20T00:35:11.830Z,68.35
2022-12-20T00:37:38.333Z,67.96
2022-12-20T00:40:06.064Z,68.16
2022-12-20T00:42:33.160Z,68.39
2022-12-20T00:44:59.604Z,68.02
2022-12-20T00:47:26.019Z,68.00
2022-12-20T00:49:52.333Z,67.85
2022-12-20T00:52:18.848Z,67.58
2022-12-20T00:54:45.333Z,67.96
2022-12-20T00:57:11.811Z,67.24
2022-12-20T00:59:38.221Z,67.04
2022-12-20T01:02:04.695Z,67.06
2022-12-20T01:04:31.240Z,67.43
2022-12-20T01:06:57.605Z,67.41
2022-12-20T01:09:24.036Z,67.51
2022-12-20T01:11:50.360Z,67.39
2022-12-20T01:14:17.012Z,67.60
2022-12-20T01:16:47.645Z,67.08
2022-12-20T01:19:17.675Z,66.98
2022-12-20T01:21:44.955Z,66.99
2022-12-20T01:24:13.105Z,67.23
2022-12-20T01:28:20.394Z,67.84
2022-12-20T01:30:46.850Z,67.81
2022-12-20T01:33:13.248Z,68.19
2022-12-20T01:35:39.695Z,68.06
2022-12-20T01:38:06.033Z,68.02
2022-12-20T01:40:32.348Z,68.29
2022-12-20T01:42:58.788Z,68.22
2022-12-20T01:45:30.548Z,68.00
2022-12-20T01:47:59.579Z,67.93
2022-12-20T01:50:26.641Z,68.24
2022-12-20T01:52:53.277Z,68.47
2022-12-20T01:55:26.200Z,67.81
2022-12-20T01:57:59.372Z,67.86
2022-12-20T02:00:26.153Z,68.43
2022-12-20T02:02:52.684Z,68.50
2022-12-20T02:05:22.504Z,68.39
2022-12-20T02:07:54.252Z,68.54
2022-12-20T02:10:26.281Z,68.83
2022-12-20T02:13:03.911Z,69.11
2022-12-20T02:15:51.723Z,68.69
2022-12-20T02:18:25.416Z,68.57
2022-12-20T02:21:14.656Z,69.19
2022-12-20T02:23:49.938Z,68.75
2022-12-20T02:26:35.115Z,68.65
2022-12-20T02:29:33.103Z,68.72
2022-12-20T02:32:16.065Z,68.31
2022-12-20T02:34:43.440Z,69.46
2022-12-20T02:37:10.751Z,71.19
2022-12-20T02:39:40.241Z,73.31
2022-12-20T02:42:09.961Z,73.77
2022-12-20T02:45:00.181Z,74.62
2022-12-20T02:47:36.701Z,74.76
2022-12-20T02:50:04.780Z,74.80
2022-12-20T02:52:32.478Z,75.17
2022-12-20T02:55:00.430Z,75.90
2022-12-20T02:57:57.853Z,76.59
2022-12-20T03:00:32.134Z,76.99
2022-12-20T03:03:17.978Z,77.27
2022-12-20T03:05:46.673Z,77.45
2022-12-20T03:08:13.086Z,77.57
2022-12-20T03:10:39.682Z,76.97
2022-12-20T03:13:06.081Z,76.65
2022-12-20T03:15:32.568Z,76.76
2022-12-20T03:17:58.906Z,76.45
2022-12-20T03:20:25.426Z,75.96
2022-12-20T03:22:51.782Z,75.64
2022-12-20T03:25:18.228Z,75.57
2022-12-20T03:27:44.967Z,76.72
2022-12-20T03:30:11.958Z,76.92
2022-12-20T03:32:40.948Z,77.11
2022-12-20T03:35:08.065Z,77.03
2022-12-20T03:37:34.421Z,78.08
2022-12-20T03:40:00.757Z,79.02
2022-12-20T03:42:27.572Z,79.59
2022-12-20T03:44:54.061Z,80.84
2022-12-20T03:47:20.487Z,81.28
2022-12-20T03:49:46.871Z,81.37
2022-12-20T03:52:15.208Z,81.76
2022-12-20T03:54:41.606Z,82.46
2022-12-20T03:57:08.025Z,82.58
2022-12-20T03:59:35.548Z,82.78
2022-12-20T04:02:02.773Z,82.23
2022-12-20T04:04:29.785Z,82.40
2022-12-20T04:06:56.425Z,83.21
2022-12-20T04:09:23.022Z,83.35
2022-12-20T04:11:49.529Z,83.67
2022-12-20T04:14:15.913Z,84.50
2022-12-20T04:16:42.390Z,85.00
2022-12-20T04:19:08.839Z,84.74
2022-12-20T04:21:35.960Z,85.14
2022-12-20T04:24:03.289Z,84.35
2022-12-20T04:26:30.202Z,84.64
2022-12-20T04:28:57.710Z,84.04
2022-12-20T04:31:24.753Z,83.46
2022-12-20T04:33:51.812Z,82.96
2022-12-20T04:36:18.619Z,82.68
2022-12-20T04:38:45.042Z,82.73
2022-12-20T04:41:21.963Z,82.91
2022-12-20T04:43:53.130Z,82.19
2022-12-20T04:46:19.800Z,81.58
2022-12-20T04:48:57.170Z,81.92
2022-12-20T04:51:25.428Z,81.81
2022-12-20T04:53:51.841Z,82.12
2022-12-20T04:56:20.558Z,81.41
2022-12-20T04:58:48.921Z,81.35
2022-12-20T05:01:15.963Z,80.93
2022-12-20T05:03:42.945Z,80.60
2022-12-20T05:06:10.077Z,80.17
2022-12-20T05:08:36.782Z,80.39
2022-12-20T05:11:04.505Z,80.09
2022-12-20T05:13:31.488Z,79.63
2022-12-20T05:15:58.412Z,79.92
2022-12-20T05:18:25.870Z,80.01
2022-12-20T05:21:15.266Z,80.23
2022-12-20T05:24:00.848Z,80.32
2022-12-20T05:26:30.660Z,80.11
2022-12-20T05:28:57.103Z,79.14
2022-12-20T05:31:23.495Z,79.66
2022-12-20T05:33:49.880Z,79.72
2022-12-20T05:36:16.243Z,79.52
2022-12-20T05:38:42.762Z,79.27
2022-12-20T05:41:09.411Z,79.10
2022-12-20T05:43:35.774Z,78.68
2022-12-20T05:46:02.177Z,78.93
2022-12-20T05:48:28.703Z,78.98
2022-12-20T05:50:55.509Z,78.87
2022-12-20T05:53:21.958Z,78.84
2022-12-20T05:55:50.604Z,78.64
2022-12-20T05:58:17.175Z,78.92
2022-12-20T06:00:44.453Z,78.73
2022-12-20T06:03:12.032Z,78.58
2022-12-20T06:05:39.087Z,78.81
2022-12-20T06:08:06.857Z,78.63
2022-12-20T06:10:37.050Z,78.12
2022-12-20T06:13:04.408Z,78.64
2022-12-20T06:15:31.525Z,78.37
2022-12-20T06:17:58.002Z,78.05
2022-12-20T06:20:47.498Z,78.31
2022-12-20T06:23:14.142Z,77.81
2022-12-20T06:25:40.525Z,77.60
2022-12-20T06:28:07.607Z,77.60
2022-12-20T06:30:38.581Z,77.49
2022-12-20T06:33:05.271Z,76.76
2022-12-20T06:35:32.342Z,76.88
2022-12-20T06:37:58.755Z,76.64
2022-12-20T06:40:25.126Z,76.52
2022-12-20T06:42:51.560Z,75.97
2022-12-20T06:45:17.973Z,76.22
2022-12-20T06:47:46.985Z,75.89
2022-12-20T06:50:13.532Z,76.05
2022-12-20T06:52:39.878Z,76.20
2022-12-20T06:55:06.497Z,76.32
2022-12-20T06:57:33.240Z,76.45
2022-12-20T06:59:59.619Z,76.50
2022-12-20T07:02:27.894Z,76.50
2022-12-20T07:04:54.885Z,76.21
2022-12-20T07:07:21.325Z,76.45
2022-12-20T07:09:47.737Z,76.37
2022-12-20T07:12:18.153Z,76.03
2022-12-20T07:14:44.549Z,75.96
2022-12-20T07:17:11.099Z,75.70
2022-12-20T07:19:37.644Z,76.05
2022-12-20T07:22:05.545Z,75.78
2022-12-20T07:24:33.086Z,75.60
2022-12-20T07:26:59.660Z,75.74
2022-12-20T07:29:26.227Z,75.05
2022-12-20T07:31:53.091Z,74.89
2022-12-20T07:34:19.529Z,74.74
2022-12-20T07:36:46.013Z,74.50
2022-12-20T07:39:12.380Z,74.44
2022-12-20T07:41:38.811Z,74.32
2022-12-20T07:44:06.208Z,73.71
2022-12-20T07:46:33.815Z,73.19
2022-12-20T07:49:00.319Z,73.11
2022-12-20T07:51:31.469Z,73.02
2022-12-20T07:54:04.922Z,72.89
2022-12-20T07:56:40.734Z,72.90
2022-12-20T07:59:10.518Z,72.70
2022-12-20T08:01:37.221Z,72.42
2022-12-20T08:04:08.828Z,72.08
2022-12-20T08:06:37.386Z,72.17
2022-12-20T08:09:06.026Z,71.98
2022-12-20T08:11:34.649Z,72.03
2022-12-20T08:14:01.657Z,71.58
2022-12-20T08:16:29.281Z,71.64
2022-12-20T08:18:55.962Z,71.12
2022-12-20T08:21:22.445Z,71.55
2022-12-20T08:23:48.819Z,71.30
2022-12-20T08:26:15.231Z,71.40
2022-12-20T08:28:41.747Z,71.35
2022-12-20T08:31:09.965Z,71.72
2022-12-20T08:33:37.884Z,71.43
2022-12-20T08:36:11.793Z,71.51
2022-12-20T08:38:38.909Z,71.66
2022-12-20T08:41:11.168Z,71.36
2022-12-20T08:43:38.010Z,71.03
2022-12-20T08:46:11.219Z,71.19
2022-12-20T08:48:37.843Z,70.63
2022-12-20T08:51:09.465Z,71.09
2022-12-20T08:53:36.658Z,71.46
2022-12-20T08:56:08.497Z,71.35
2022-12-20T08:58:35.730Z,71.14
2022-12-20T09:01:06.886Z,70.48
2022-12-20T09:03:35.119Z,70.55
2022-12-20T09:06:06.561Z,71.29
2022-12-20T09:08:34.408Z,70.96
2022-12-20T09:11:06.535Z,71.13
2022-12-20T09:13:36.555Z,72.54
2022-12-20T09:16:15.760Z,73.44
2022-12-20T09:18:42.388Z,73.39
2022-12-20T09:21:10.008Z,73.27
2022-12-20T09:23:37.342Z,73.38
2022-12-20T09:26:11.594Z,72.98
2022-12-20T09:28:41.660Z,73.08
2022-12-20T09:31:12.061Z,72.35
2022-12-20T09:33:38.464Z,72.33
2022-12-20T09:36:07.476Z,72.13
2022-12-20T09:38:33.882Z,71.43
2022-12-20T09:41:06.713Z,71.17
2022-12-20T09:43:33.942Z,71.18
2022-12-20T09:46:02.858Z,71.23
2022-12-20T09:48:33.907Z,70.55
2022-12-20T09:51:42.520Z,70.85
2022-12-20T09:54:21.005Z,71.10
2022-12-20T09:56:59.902Z,71.45
2022-12-20T09:59:27.426Z,71.29
2022-12-20T10:01:54.019Z,71.01
2022-12-20T10:04:32.369Z,70.96
2022-12-20T10:07:01.757Z,71.28
2022-12-20T10:10:24.531Z,71.51
2022-12-20T10:13:28.551Z,70.99
2022-12-20T10:16:07.698Z,71.54
2022-12-20T10:19:08.752Z,70.88
2022-12-20T10:22:03.828Z,70.85
2022-12-20T10:24:32.189Z,70.53
2022-12-20T10:27:12.561Z,70.63
2022-12-20T10:29:39.043Z,70.81
2022-12-20T10:32:13.106Z,71.33
2022-12-20T10:34:48.538Z,70.99
2022-12-20T10:37:16.190Z,70.73
2022-12-20T10:39:51.086Z,70.44
2022-12-20T10:42:26.106Z,70.83
2022-12-20T10:44:53.745Z,71.05
2022-12-20T10:47:39.343Z,70.69
2022-12-20T10:50:21.075Z,70.49
2022-12-20T10:53:09.694Z,71.04
2022-12-20T10:55:41.573Z,71.37
2022-12-20T10:58:16.096Z,71.52
2022-12-20T11:00:43.386Z,71.02
2022-12-20T11:03:19.146Z,71.64
2022-12-20T11:06:04.432Z,71.41
2022-12-20T11:08:49.867Z,71.83
2022-12-20T11:11:36.503Z,71.77
2022-12-20T11:14:40.216Z,71.83
2022-12-20T11:17:21.897Z,71.27
2022-12-20T11:20:08.686Z,71.46
2022-12-20T11:23:06.487Z,71.23
2022-12-20T11:25:59.181Z,70.82
2022-12-20T11:28:50.928Z,70.27
2022-12-20T11:31:35.630Z,70.10
2022-12-20T11:34:35.026Z,70.45
2022-12-20T11:37:10.605Z,70.53
2022-12-20T11:39:47.336Z,70.07
2022-12-20T11:42:27.151Z,69.23
2022-12-20T11:45:09.602Z,69.17
2022-12-20T11:48:04.566Z,69.77
2022-12-20T11:50:56.247Z,69.94
2022-12-20T11:53:32.216Z,70.18
2022-12-20T11:56:04.830Z,70.49
2022-12-20T11:58:45.121Z,70.91
2022-12-20T12:01:21.441Z,71.08
2022-12-20T12:04:12.621Z,71.53
2022-12-20T12:06:44.081Z,72.12
2022-12-20T12:09:24.905Z,74.34
2022-12-20T12:12:07.934Z,76.75
2022-12-20T12:15:04.658Z,79.92
2022-12-20T12:17:44.336Z,82.19
2022-12-20T12:20:35.105Z,84.39
2022-12-20T12:23:43.507Z,86.70
2022-12-20T12:26:24.983Z,87.26
2022-12-20T12:28:55.894Z,88.92
2022-12-20T12:31:35.351Z,90.07
2022-12-20T12:34:26.808Z,89.18
2022-12-20T12:37:20.573Z,89.71
2022-12-20T12:40:11.857Z,90.78
2022-12-20T12:42:56.990Z,90.87
2022-12-20T12:45:27.973Z,90.00
2022-12-20T12:48:12.328Z,91.49
2022-12-20T12:50:45.233Z,91.59
2022-12-20T12:53:27.262Z,91.29
2022-12-20T12:56:07.282Z,91.86
2022-12-20T12:58:46.390Z,90.74
2022-12-20T13:01:51.855Z,91.82
2022-12-20T13:04:19.591Z,91.97
2022-12-20T13:06:48.804Z,93.10
2022-12-20T13:09:27.701Z,91.48
2022-12-20T13:12:02.058Z,90.81
2022-12-20T13:14:29.832Z,90.53
2022-12-20T13:17:24.104Z,90.42
2022-12-20T13:19:52.132Z,90.57
2022-12-20T13:22:24.596Z,90.90
2022-12-20T13:24:56.911Z,90.58
2022-12-20T13:27:30.626Z,92.93
2022-12-20T13:29:59.621Z,92.54
2022-12-20T13:32:47.870Z,93.34
2022-12-20T13:35:26.972Z,92.48
2022-12-20T13:38:40.742Z,91.10
2022-12-20T13:41:34.802Z,91.85
2022-12-20T13:44:13.823Z,91.95
2022-12-20T13:46:53.865Z,92.86
2022-12-20T13:49:27.469Z,92.12
2022-12-20T13:52:09.159Z,92.74
2022-12-20T13:54:40.918Z,92.67
2022-12-20T13:57:07.780Z,92.96
2022-12-20T13:59:34.515Z,92.33
2022-12-20T14:02:05.033Z,92.14
2022-12-20T14:04:44.963Z,93.67
2022-12-20T14:07:16.704Z,92.39
2022-12-20T14:09:46.645Z,92.39
2022-12-20T14:12:13.601Z,93.08
2022-12-20T14:14:47.370Z,92.76
2022-12-20T14:17:32.885Z,94.53
2022-12-20T14:20:17.141Z,93.28
2022-12-20T14:23:04.270Z,92.97
2022-12-20T14:25:41.791Z,93.23
2022-12-20T14:28:38.089Z,93.18
2022-12-20T14:31:06.609Z,92.64
2022-12-20T14:33:41.251Z,93.88
2022-12-20T14:36:20.312Z,94.25
2022-12-20T14:38:57.689Z,93.80
2022-12-20T14:41:31.690Z,92.97
2022-12-20T14:44:02.125Z,93.03
2022-12-20T14:46:30.831Z,94.48
2022-12-20T14:49:16.101Z,93.72
2022-12-20T14:51:42.774Z,93.85
2022-12-20T14:55:05.817Z,93.89
2022-12-20T14:57:23.380Z,93.71
2022-12-20T15:00:18.960Z,93.89
2022-12-20T15:02:45.804Z,93.72
2022-12-20T15:05:35.014Z,94.16
2022-12-20T15:08:28.889Z,93.92
2022-12-20T15:11:10.881Z,93.92
2022-12-20T15:13:38.794Z,94.44
2022-12-20T15:16:16.760Z,94.42
2022-12-20T15:18:43.604Z,95.01
2022-12-20T15:21:33.584Z,94.43
2022-12-20T15:24:02.236Z,94.25
2022-12-20T15:26:31.004Z,94.26
2022-12-20T15:28:57.591Z,94.54
2022-12-20T15:31:33.026Z,93.34
2022-12-20T15:34:02.552Z,93.49
2022-12-20T15:36:29.779Z,94.54
2022-12-20T15:39:14.129Z,93.69
2022-12-20T15:41:47.209Z,93.92
2022-12-20T15:44:16.578Z,94.34
2022-12-20T15:46:44.233Z,94.19
2022-12-20T15:49:18.291Z,94.15
2022-12-20T15:51:47.633Z,94.00
2022-12-20T15:54:27.429Z,94.26
2022-12-20T15:56:55.816Z,93.61
2022-12-20T15:59:58.298Z,92.93
2022-12-20T16:02:29.139Z,92.55
2022-12-20T16:04:55.943Z,92.44
2022-12-20T16:07:22.644Z,93.11
2022-12-20T16:09:49.077Z,93.72
2022-12-20T16:12:23.084Z,93.38
2022-12-20T16:14:49.568Z,93.58
2022-12-20T16:17:16.459Z,94.26
2022-12-20T16:19:43.795Z,93.97
2022-12-20T16:22:22.239Z,94.52
2022-12-20T16:24:49.276Z,94.34
2022-12-20T16:27:15.676Z,94.51
2022-12-20T16:29:42.055Z,95.42
2022-12-20T16:32:15.511Z,95.35
2022-12-20T16:34:42.024Z,94.90
2022-12-20T16:37:08.389Z,95.03
2022-12-20T16:39:34.751Z,94.21
2022-12-20T16:42:01.596Z,95.44
2022-12-20T16:44:28.009Z,95.25
2022-12-20T16:46:54.404Z,94.73
2022-12-20T16:49:21.188Z,93.90
2022-12-20T16:51:48.802Z,94.50
2022-12-20T16:54:21.618Z,94.12
2022-12-20T16:56:54.939Z,94.58
2022-12-20T16:59:25.310Z,94.17
2022-12-20T17:01:54.456Z,95.00
2022-12-20T17:04:21.629Z,94.05
2022-12-20T17:06:48.349Z,94.87
2022-12-20T17:09:16.222Z,94.14
2022-12-20T17:11:42.856Z,94.12
2022-12-20T17:14:13.201Z,93.65
2022-12-20T17:16:40.781Z,93.07
2022-12-20T17:19:07.354Z,93.35
2022-12-20T17:24:29.763Z,93.33
2022-12-20T17:26:56.116Z,93.80
2022-12-20T17:29:22.649Z,93.13
2022-12-20T17:31:49.220Z,92.91
2022-12-20T17:34:18.736Z,93.01
2022-12-20T17:36:46.421Z,92.89
2022-12-20T17:39:13.193Z,92.68
2022-12-20T17:41:39.761Z,91.91
2022-12-20T17:44:06.644Z,92.26
2022-12-20T17:46:33.056Z,93.20
2022-12-20T17:48:59.436Z,93.51
2022-12-20T17:51:28.307Z,92.75
2022-12-20T17:53:57.200Z,92.32
2022-12-20T17:56:28.669Z,92.30
2022-12-20T17:58:57.598Z,92.14
2022-12-20T18:01:30.232Z,92.15
2022-12-20T18:04:04.152Z,92.78
2022-12-20T18:06:32.660Z,92.86
2022-12-20T18:08:59.293Z,93.30
2022-12-20T18:11:27.589Z,93.33
2022-12-20T18:13:56.735Z,93.81
2022-12-20T18:16:25.970Z,94.42
2022-12-20T18:18:53.481Z,94.25
2022-12-20T18:21:21.495Z,94.39
2022-12-20T18:23:48.284Z,95.50
2022-12-20T18:26:27.176Z,94.98
2022-12-20T18:28:56.127Z,94.82
2022-12-20T18:31:25.589Z,95.05
2022-12-20T18:33:57.776Z,95.13
2022-12-20T18:36:27.665Z,96.01
2022-12-20T18:38:54.841Z,95.87
2022-12-20T18:41:23.913Z,96.87
2022-12-20T18:43:51.594Z,96.79
2022-12-20T18:46:22.934Z,96.84
2022-12-20T18:48:53.920Z,97.97
2022-12-20T18:51:23.109Z,98.10
2022-12-20T18:53:51.403Z,96.99
2022-12-20T18:56:21.810Z,97.03
2022-12-20T18:58:48.665Z,96.87
2022-12-20T19:01:18.210Z,97.28
2022-12-20T19:03:45.081Z,96.91
2022-12-20T19:06:12.298Z,96.96
2022-12-20T19:08:39.111Z,96.11
2022-12-20T19:11:08.002Z,97.27
2022-12-20T19:13:34.679Z,97.29
2022-12-20T19:16:03.316Z,97.46
2022-12-20T19:18:30.307Z,97.07
2022-12-20T19:21:10.631Z,98.19
2022-12-20T19:23:38.918Z,97.68
2022-12-20T19:26:07.427Z,96.94
2022-12-20T19:28:34.276Z,96.83
2022-12-20T19:31:09.174Z,97.40
2022-12-20T19:33:40.623Z,96.56
2022-12-20T19:36:14.594Z,95.17
2022-12-20T19:38:45.933Z,95.95
2022-12-20T19:41:12.619Z,96.81
2022-12-20T19:43:39.263Z,95.57
2022-12-20T19:46:06.063Z,96.05
2022-12-20T19:48:33.510Z,96.61
2022-12-20T19:51:11.855Z,98.29
2022-12-20T19:53:44.334Z,96.49
2022-12-20T19:56:16.612Z,96.44
2022-12-20T19:58:43.628Z,97.84
2022-12-20T20:01:11.556Z,97.31
2022-12-20T20:03:38.577Z,96.25
2022-12-20T20:06:07.180Z,96.06
2022-12-20T20:08:34.755Z,96.46
2022-12-20T20:11:09.072Z,96.67
2022-12-20T20:13:37.446Z,97.02
2022-12-20T20:16:04.623Z,96.94
2022-12-20T20:18:34.264Z,96.38
2022-12-20T20:21:06.185Z,96.96
2022-12-20T20:23:32.668Z,97.00
2022-12-20T20:25:59.867Z,97.28
2022-12-20T20:28:31.883Z,97.62
2022-12-20T20:30:59.678Z,98.03
2022-12-20T20:33:26.305Z,98.05
2022-12-20T20:35:58.067Z,98.60
2022-12-20T20:38:25.499Z,97.99
2022-12-20T20:40:52.192Z,97.69
2022-12-20T20:43:19.752Z,97.94
2022-12-20T20:45:46.229Z,98.80
2022-12-20T20:48:13.192Z,99.29
2022-12-20T20:50:40.249Z,98.97
2022-12-20T20:53:07.188Z,98.86
2022-12-20T20:55:34.522Z,98.54
2022-12-20T20:58:01.025Z,100.00
2022-12-20T21:00:29.539Z,99.90
2022-12-20T21:02:56.469Z,98.84
2022-12-20T21:08:09.977Z,99.83
2022-12-20T21:10:37.004Z,99.52
2022-12-20T21:13:04.760Z,99.63
2022-12-20T21:15:31.103Z,100.00
2022-12-20T21:17:57.497Z,100.00
2022-12-20T21:20:26.219Z,100.00
2022-12-20T21:22:53.239Z,100.00
2022-12-20T21:25:19.628Z,100.00
2022-12-20T21:27:45.958Z,100.00
2022-12-20T21:30:12.909Z,100.00
2022-12-20T21:32:39.239Z,100.00
2022-12-20T21:35:06.338Z,100.00
2022-12-20T21:37:32.796Z,100.00
2022-12-20T21:39:59.340Z,100.00
2022-12-20T21:42:25.840Z,99.79
2022-12-20T21:44:52.471Z,100.00
2022-12-20T21:47:19.121Z,99.93
2022-12-20T21:49:45.894Z,100.00
2022-12-20T21:52:12.359Z,100.00
2022-12-20T21:54:38.752Z,99.83
2022-12-20T21:57:05.108Z,99.95
2022-12-20T21:59:31.542Z,100.00
2022-12-20T22:01:58.080Z,100.00
2022-12-20T22:04:25.679Z,100.00
2022-12-20T22:06:52.049Z,100.00
2022-12-20T22:09:18.481Z,99.39
2022-12-20T22:11:48.399Z,99.07
2022-12-20T22:14:15.701Z,100.00
2022-12-20T22:16:42.434Z,99.83
2022-12-20T22:19:13.035Z,99.99
2022-12-20T22:21:39.472Z,99.17
2022-12-20T22:24:06.107Z,99.44
2022-12-20T22:26:33.614Z,100.00
2022-12-20T22:29:03.489Z,100.00
2022-12-20T22:31:30.591Z,100.00
2022-12-20T22:33:57.704Z,100.00
2022-12-20T22:36:24.707Z,100.00
2022-12-20T22:38:52.488Z,100.00
2022-12-20T22:41:22.341Z,98.92
2022-12-20T22:43:49.180Z,99.56
2022-12-20T22:46:17.485Z,99.97
2022-12-20T22:48:44.001Z,100.00
2022-12-20T22:51:22.097Z,100.00
2022-12-20T22:53:49.251Z,100.00
2022-12-20T22:56:17.355Z,100.00
2022-12-20T22:58:44.482Z,100.00
2022-12-20T23:01:12.879Z,100.00
2022-12-20T23:03:40.090Z,100.00
2022-12-20T23:06:08.192Z,99.68
2022-12-20T23:08:36.588Z,99.55
2022-12-20T23:11:23.034Z,100.00
2022-12-20T23:14:08.305Z,100.00
2022-12-20T23:16:37.079Z,100.00
2022-12-20T23:19:03.536Z,100.00
2022-12-20T23:21:48.566Z,99.00
2022-12-20T23:24:15.428Z,99.58
2022-12-20T23:26:42.631Z,98.59
2022-12-20T23:29:10.042Z,99.00
2022-12-20T23:31:36.638Z,99.87
2022-12-20T23:34:03.849Z,100.00
2022-12-20T23:36:33.121Z,99.91
2022-12-20T23:39:00.015Z,99.50
2022-12-20T23:41:26.519Z,98.52
2022-12-20T23:43:52.905Z,98.69
2022-12-20T23:46:19.992Z,98.34
2022-12-20T23:48:46.511Z,99.75
2022-12-20T23:51:13.611Z,100.00
2022-12-20T23:53:40.044Z,99.76
2022-12-20T23:56:15.475Z,100.00
2022-12-20T23:58:43.042Z,100.00
